Time;durP1;ratioP1;P1;durP2;ratioP2;P2;SDS_P1;SDS_P2;PMS_P1;PMS_P2;Temp;Humidity;BMP_temperature;BMP_pressure;BME280_temperature;BME280_humidity;BME280_pressure;Samples;Min_cycle;Max_cycle;Signal;HPM_P1;HPM_P2
2021/08/01 00:04:33;;;;;;;11.32;5.50;;;15.20;99.90;;;;;;12535000;28;20587;-84
2021/08/01 00:10:34;;;;;;;10.10;5.38;;;14.90;99.90;;;;;;12521040;28;20105;-84
2021/08/01 00:16:36;;;;;;;9.45;6.00;;;15.00;99.90;;;;;;12544120;28;20448;-83
2021/08/01 00:22:38;;;;;;;9.85;5.85;;;14.70;99.90;;;;;;12527266;28;20635;-84
2021/08/01 00:28:40;;;;;;;10.73;5.85;;;15.20;99.90;;;;;;12538000;28;20056;-83
2021/08/01 00:34:42;;;;;;;10.85;5.85;;;15.00;99.90;;;;;;12527095;28;20124;-84
2021/08/01 00:40:44;;;;;;;8.48;6.00;;;15.30;99.90;;;;;;12530637;28;20083;-84
2021/08/01 00:46:46;;;;;;;8.43;6.53;;;15.40;99.90;;;;;;12539714;28;20831;-84
2021/08/01 00:52:51;;;;;;;7.82;5.55;;;14.70;99.90;;;;;;12528794;28;20040;-84
2021/08/01 00:58:52;;;;;;;9.13;6.00;;;15.50;99.90;;;;;;12551616;28;20068;-84
2021/08/01 01:05:02;;;;;;;10.48;7.13;;;15.60;99.90;;;;;;12534778;28;21127;-83
2021/08/01 01:11:05;;;;;;;14.30;7.47;;;14.90;99.90;;;;;;12527789;28;20442;-83
2021/08/01 01:17:13;;;;;;;12.00;7.60;;;15.10;99.90;;;;;;12521293;28;20535;-83
2021/08/01 01:23:50;;;;;;;14.02;8.88;;;14.80;99.90;;;;;;12529192;28;20094;-84
2021/08/01 01:29:58;;;;;;;15.63;8.98;;;14.80;99.90;;;;;;12524513;28;20587;-83
2021/08/01 01:36:04;;;;;;;13.77;9.25;;;14.70;99.90;;;;;;12532302;28;20049;-83
2021/08/01 01:42:10;;;;;;;13.35;10.40;;;14.70;99.90;;;;;;12527153;28;20045;-83
2021/08/01 01:48:12;;;;;;;12.15;9.07;;;14.90;99.90;;;;;;12541531;28;20113;-84
2021/08/01 01:54:15;;;;;;;16.63;10.73;;;14.70;99.90;;;;;;12526117;28;20041;-84
2021/08/01 02:00:17;;;;;;;13.23;10.63;;;14.60;99.90;;;;;;12535266;28;20124;-83
2021/08/01 02:06:19;;;;;;;17.20;11.13;;;14.70;99.90;;;;;;12530352;28;20088;-83
2021/08/01 02:12:31;;;;;;;18.33;11.63;;;14.70;99.90;;;;;;12527172;28;20120;-84
2021/08/01 02:18:50;;;;;;;21.42;11.02;;;14.90;99.90;;;;;;12534537;28;20078;-83
2021/08/01 02:24:54;;;;;;;17.98;11.85;;;14.50;99.90;;;;;;12532922;28;20174;-84
2021/08/01 02:30:57;;;;;;;17.35;11.23;;;14.50;99.90;;;;;;12523882;28;20132;-83
2021/08/01 02:37:01;;;;;;;17.45;12.38;;;15.10;99.90;;;;;;12546915;28;20052;-84
2021/08/01 02:43:10;;;;;;;18.55;11.80;;;14.60;99.90;;;;;;12552750;28;20585;-84
2021/08/01 02:49:18;;;;;;;18.58;11.45;;;14.60;99.90;;;;;;12544502;28;20095;-84
2021/08/01 02:55:20;;;;;;;19.20;11.52;;;14.20;99.90;;;;;;12546566;28;20079;-84
2021/08/01 03:01:21;;;;;;;18.73;11.93;;;14.50;99.90;;;;;;12541729;28;20120;-84
2021/08/01 03:07:24;;;;;;;18.60;11.90;;;14.70;99.90;;;;;;12585830;28;20037;-83
2021/08/01 03:13:26;;;;;;;22.60;12.75;;;14.60;99.90;;;;;;12551598;28;20095;-84
2021/08/01 03:19:28;;;;;;;21.65;14.00;;;14.50;99.90;;;;;;12550430;28;20496;-83
2021/08/01 03:25:30;;;;;;;23.27;14.73;;;14.50;99.90;;;;;;12533813;28;20052;-84
2021/08/01 03:31:32;;;;;;;22.35;15.00;;;15.00;99.90;;;;;;12534258;28;20076;-84
2021/08/01 03:37:33;;;;;;;22.38;15.38;;;14.50;99.90;;;;;;12531623;28;20179;-84
2021/08/01 03:43:35;;;;;;;22.80;15.10;;;14.80;99.90;;;;;;12535466;28;20435;-84
2021/08/01 03:49:37;;;;;;;25.33;16.83;;;14.40;99.90;;;;;;12536788;28;20082;-83
2021/08/01 03:55:39;;;;;;;24.50;16.80;;;14.60;99.90;;;;;;12535975;28;20136;-83
2021/08/01 04:01:41;;;;;;;23.80;17.98;;;14.50;99.90;;;;;;12535967;28;20044;-83
2021/08/01 04:07:43;;;;;;;27.00;18.48;;;14.10;99.90;;;;;;12535629;28;20056;-84
2021/08/01 04:13:45;;;;;;;26.02;18.58;;;14.10;99.90;;;;;;12534389;28;20049;-84
2021/08/01 04:19:47;;;;;;;28.80;18.30;;;14.20;99.90;;;;;;12535462;28;20076;-83
2021/08/01 04:25:49;;;;;;;26.77;18.65;;;14.20;99.90;;;;;;12545397;28;20160;-83
2021/08/01 04:31:51;;;;;;;27.70;19.13;;;14.00;99.90;;;;;;12530318;28;20045;-83
2021/08/01 04:37:53;;;;;;;27.23;18.30;;;13.90;99.90;;;;;;12537733;28;20056;-83
2021/08/01 04:43:55;;;;;;;27.25;18.48;;;14.20;99.90;;;;;;12535430;28;20053;-83
2021/08/01 04:49:56;;;;;;;28.65;18.08;;;14.30;99.90;;;;;;12529629;28;20136;-83
2021/08/01 04:55:58;;;;;;;25.92;18.25;;;14.80;99.90;;;;;;12524902;28;20144;-83
2021/08/01 05:02:01;;;;;;;23.13;17.17;;;14.50;99.90;;;;;;12533306;28;20163;-83
2021/08/01 05:08:03;;;;;;;23.95;17.65;;;14.50;99.90;;;;;;12536819;28;20061;-83
2021/08/01 05:14:05;;;;;;;25.70;17.33;;;14.50;99.90;;;;;;12521914;28;20064;-83
2021/08/01 05:20:08;;;;;;;22.95;16.98;;;15.00;99.90;;;;;;12534143;28;20053;-83
2021/08/01 05:26:10;;;;;;;28.60;17.55;;;14.50;99.90;;;;;;12531887;28;20088;-83
2021/08/01 05:32:12;;;;;;;22.25;16.80;;;14.90;99.90;;;;;;12527365;28;20045;-84
2021/08/01 05:38:14;;;;;;;23.13;16.90;;;15.20;99.90;;;;;;12536411;28;20051;-83
2021/08/01 05:44:16;;;;;;;25.88;17.35;;;14.90;99.90;;;;;;12540677;28;20179;-83
2021/08/01 05:50:18;;;;;;;22.80;17.10;;;14.90;99.90;;;;;;12529553;28;20106;-84
2021/08/01 05:56:19;;;;;;;26.55;18.30;;;15.10;99.90;;;;;;12537955;28;20083;-83
2021/08/01 06:02:21;;;;;;;24.73;17.35;;;15.00;99.90;;;;;;12523323;28;20079;-83
2021/08/01 06:08:23;;;;;;;24.40;17.20;;;14.90;99.90;;;;;;12502000;28;1070918;-83
2021/08/01 06:14:25;;;;;;;27.20;18.23;;;15.10;99.90;;;;;;12546759;28;20070;-84
2021/08/01 06:20:27;;;;;;;23.80;17.88;;;15.50;99.90;;;;;;12539761;28;20049;-82
2021/08/01 06:26:29;;;;;;;26.60;17.25;;;15.20;99.90;;;;;;12538131;28;20474;-84
2021/08/01 06:32:31;;;;;;;23.98;17.33;;;15.40;99.90;;;;;;12551368;28;20142;-83
2021/08/01 06:38:33;;;;;;;23.25;17.10;;;15.30;99.90;;;;;;12543438;28;20053;-83
2021/08/01 06:44:38;;;;;;;23.80;16.58;;;15.30;99.90;;;;;;12540462;28;20044;-84
2021/08/01 06:50:40;;;;;;;24.42;17.75;;;15.50;99.90;;;;;;12546477;28;20132;-83
2021/08/01 06:56:42;;;;;;;23.67;16.95;;;15.60;99.90;;;;;;12553876;28;20075;-84
2021/08/01 07:02:44;;;;;;;25.10;16.35;;;15.70;99.90;;;;;;12557660;28;20122;-84
2021/08/01 07:08:47;;;;;;;24.67;18.27;;;15.90;99.90;;;;;;12540135;28;20086;-84
2021/08/01 07:14:48;;;;;;;24.25;16.83;;;16.10;99.90;;;;;;12527153;28;20041;-85
2021/08/01 07:20:50;;;;;;;21.60;15.20;;;16.00;99.90;;;;;;12532459;28;20489;-84
2021/08/01 07:26:54;;;;;;;20.75;15.20;;;16.10;99.90;;;;;;12518453;28;20516;-84
2021/08/01 07:32:56;;;;;;;19.70;14.02;;;16.20;99.90;;;;;;12535359;28;20167;-85
2021/08/01 07:38:58;;;;;;;21.40;16.40;;;16.50;99.90;;;;;;12538658;28;20172;-84
2021/08/01 07:45:04;;;;;;;22.35;15.65;;;16.60;99.90;;;;;;12536023;28;20117;-84
2021/08/01 07:51:06;;;;;;;19.77;14.93;;;16.70;99.90;;;;;;12541275;28;20072;-84
2021/08/01 07:57:29;;;;;;;21.17;15.32;;;16.70;99.90;;;;;;12538793;28;20113;-84
2021/08/01 08:03:31;;;;;;;19.95;15.23;;;17.10;99.90;;;;;;12527483;28;20132;-84
2021/08/01 08:09:33;;;;;;;19.10;13.60;;;16.90;99.90;;;;;;12542889;28;20138;-84
2021/08/01 08:15:35;;;;;;;16.90;13.48;;;16.70;99.90;;;;;;12531880;28;20052;-84
2021/08/01 08:21:37;;;;;;;20.48;13.25;;;17.60;99.90;;;;;;12539194;28;20139;-84
2021/08/01 08:27:39;;;;;;;15.73;11.93;;;17.40;99.90;;;;;;12539306;28;20064;-83
2021/08/01 08:33:42;;;;;;;16.73;11.98;;;17.70;99.90;;;;;;12537489;28;20091;-84
2021/08/01 08:39:44;;;;;;;14.05;10.63;;;17.50;99.90;;;;;;12531769;28;20629;-84
2021/08/01 08:45:47;;;;;;;18.80;12.30;;;17.80;99.90;;;;;;12535813;28;20045;-84
2021/08/01 08:51:52;;;;;;;16.23;10.50;;;18.20;99.90;;;;;;12541147;28;20128;-84
2021/08/01 08:58:00;;;;;;;15.88;10.45;;;18.00;99.90;;;;;;12525038;28;20052;-84
2021/08/01 09:04:02;;;;;;;12.98;8.93;;;18.40;99.90;;;;;;12535547;28;20052;-86
2021/08/01 09:10:05;;;;;;;12.70;10.68;;;18.20;99.90;;;;;;12528627;28;20052;-84
2021/08/01 09:16:07;;;;;;;12.50;8.50;;;17.80;99.90;;;;;;12528181;28;20131;-85
2021/08/01 09:22:11;;;;;;;10.25;6.80;;;18.50;99.90;;;;;;12530644;28;20127;-83
2021/08/01 09:28:20;;;;;;;11.00;7.35;;;19.40;99.90;;;;;;12541590;28;20099;-85
2021/08/01 09:34:25;;;;;;;10.30;7.35;;;18.60;99.90;;;;;;12543937;28;20072;-84
2021/08/01 09:40:34;;;;;;;7.50;5.40;;;18.90;99.90;;;;;;12537828;28;20059;-84
2021/08/01 09:46:47;;;;;;;8.68;5.40;;;19.30;99.90;;;;;;12551910;28;20025;-85
2021/08/01 09:52:49;;;;;;;9.60;6.17;;;19.80;99.90;;;;;;12586414;28;20041;-85
2021/08/01 09:58:50;;;;;;;7.20;5.13;;;19.50;99.90;;;;;;12536312;28;20179;-84
2021/08/01 10:05:13;;;;;;;9.02;7.05;;;19.40;99.90;;;;;;12535935;28;20045;-85
2021/08/01 10:11:25;;;;;;;7.15;5.22;;;19.80;99.90;;;;;;12537527;28;20068;-84
2021/08/01 10:17:27;;;;;;;6.18;5.40;;;20.30;99.90;;;;;;12526540;28;20140;-84
2021/08/01 10:23:35;;;;;;;7.88;6.00;;;20.40;99.90;;;;;;12530894;28;20106;-85
2021/08/01 10:29:44;;;;;;;12.20;8.63;;;20.00;99.90;;;;;;12537131;28;20053;-84
2021/08/01 10:35:54;;;;;;;6.28;5.40;;;19.60;99.90;;;;;;12548408;28;20117;-85
2021/08/01 10:41:56;;;;;;;10.00;6.32;;;19.70;99.90;;;;;;12523472;28;21822;-85
2021/08/01 10:48:00;;;;;;;7.40;6.03;;;20.30;99.90;;;;;;12537386;28;20426;-84
2021/08/01 10:54:20;;;;;;;7.82;5.50;;;20.90;99.90;;;;;;12534312;28;20087;-85
2021/08/01 11:00:22;;;;;;;8.65;5.80;;;21.00;99.90;;;;;;12530463;28;20072;-84
2021/08/01 11:06:53;;;;;;;8.35;5.88;;;21.60;99.90;;;;;;12536758;28;20080;-86
2021/08/01 11:12:55;;;;;;;7.45;4.90;;;20.90;99.90;;;;;;12534579;28;20093;-83
2021/08/01 11:18:58;;;;;;;5.45;4.20;;;20.60;99.90;;;;;;12538811;28;20136;-85
2021/08/01 11:25:21;;;;;;;6.03;3.38;;;20.90;99.90;;;;;;12535660;28;20139;-84
2021/08/01 11:31:23;;;;;;;;;;;21.10;99.90;;;;;;12557312;28;20573;-85
2021/08/01 11:37:25;;;;;;;3.80;2.50;;;20.80;99.90;;;;;;12534220;28;19928;-85
2021/08/01 11:43:27;;;;;;;6.40;2.40;;;21.60;99.90;;;;;;12526316;28;20474;-84
2021/08/01 11:49:35;;;;;;;4.03;2.55;;;21.80;99.90;;;;;;12537249;28;20587;-85
2021/08/01 11:55:37;;;;;;;3.90;2.28;;;21.10;99.90;;;;;;12531182;28;20690;-85
2021/08/01 12:01:41;;;;;;;4.47;2.40;;;20.80;99.90;;;;;;12538404;28;20052;-84
2021/08/01 12:07:49;;;;;;;5.85;2.80;;;20.50;99.90;;;;;;12527698;28;20053;-85
2021/08/01 12:14:27;;;;;;;5.35;2.97;;;20.00;99.90;;;;;;12532096;28;20079;-85
2021/08/01 12:20:33;;;;;;;5.45;3.28;;;20.10;99.90;;;;;;12533315;28;20044;-85
2021/08/01 12:26:40;;;;;;;5.80;3.67;;;21.20;99.90;;;;;;12534669;28;20051;-84
2021/08/01 12:32:44;;;;;;;4.18;2.90;;;22.30;99.90;;;;;;12532408;28;20135;-86
2021/08/01 12:38:47;;;;;;;4.10;2.92;;;22.80;99.90;;;;;;12527779;28;20048;-85
2021/08/01 12:44:53;;;;;;;4.03;2.55;;;23.30;99.90;;;;;;12530180;28;20052;-86
2021/08/01 12:50:59;;;;;;;8.13;3.15;;;22.50;99.90;;;;;;12532097;28;21306;-84
2021/08/01 12:57:05;;;;;;;4.60;3.70;;;21.60;99.90;;;;;;12529136;28;20235;-84
2021/08/01 13:03:11;;;;;;;6.50;3.92;;;21.40;99.90;;;;;;12548108;28;20178;-83
2021/08/01 13:09:19;;;;;;;8.27;3.80;;;21.20;99.90;;;;;;12554077;28;20056;-85
2021/08/01 13:15:29;;;;;;;5.20;3.95;;;21.60;99.90;;;;;;12555038;28;20052;-86
2021/08/01 13:21:32;;;;;;;3.97;3.17;;;22.10;99.90;;;;;;12532678;28;20553;-85
2021/08/01 13:27:50;;;;;;;5.90;3.38;;;21.90;99.90;;;;;;12527495;28;20059;-85
2021/08/01 13:33:57;;;;;;;8.02;3.47;;;21.90;99.90;;;;;;12523501;28;20079;-84
2021/08/01 13:40:01;;;;;;;6.18;2.83;;;21.60;99.90;;;;;;12532825;28;20044;-84
2021/08/01 13:46:15;;;;;;;3.20;2.15;;;21.90;99.90;;;;;;12531987;28;20052;-85
2021/08/01 13:52:19;;;;;;;3.22;2.40;;;22.60;99.90;;;;;;12534962;28;20183;-85
2021/08/01 13:58:21;;;;;;;3.00;1.70;;;22.10;99.90;;;;;;12534507;28;20076;-84
2021/08/01 14:04:23;;;;;;;4.97;1.90;;;20.90;99.90;;;;;;12521284;28;20049;-82
2021/08/01 14:10:24;;;;;;;5.20;2.15;;;20.20;99.90;;;;;;12521969;28;20104;-83
2021/08/01 14:16:26;;;;;;;4.50;2.20;;;19.90;99.90;;;;;;12535095;28;20132;-84
2021/08/01 14:22:28;;;;;;;6.88;1.95;;;19.60;99.90;;;;;;12535933;28;20202;-83
2021/08/01 14:28:31;;;;;;;4.93;2.50;;;19.80;99.90;;;;;;12531314;28;20065;-84
2021/08/01 14:34:34;;;;;;;4.13;2.80;;;20.10;99.90;;;;;;12545951;28;20090;-83
2021/08/01 14:40:40;;;;;;;3.53;2.33;;;21.00;99.90;;;;;;12539145;28;20123;-84
2021/08/01 14:46:42;;;;;;;5.35;2.47;;;21.30;99.90;;;;;;12548708;28;20559;-84
2021/08/01 14:53:04;;;;;;;4.32;2.42;;;21.40;99.90;;;;;;12541982;28;20552;-83
2021/08/01 14:59:07;;;;;;;3.97;3.05;;;21.20;99.90;;;;;;12546042;28;20056;-84
2021/08/01 15:05:39;;;;;;;3.42;2.50;;;21.40;99.90;;;;;;12534251;28;20112;-83
2021/08/01 15:11:47;;;;;;;5.75;3.00;;;22.00;99.90;;;;;;12504811;28;20049;-84
2021/08/01 15:17:53;;;;;;;3.05;1.80;;;22.30;99.90;;;;;;12517996;28;20049;-84
2021/08/01 15:24:07;;;;;;;2.92;1.80;;;22.40;99.90;;;;;;12507854;28;20040;-83
2021/08/01 15:30:14;;;;;;;3.13;1.83;;;22.10;99.90;;;;;;12507540;28;20827;-84
2021/08/01 15:36:16;;;;;;;2.92;1.60;;;22.00;99.90;;;;;;12514729;28;20048;-84
2021/08/01 15:42:19;;;;;;;2.55;0.80;;;22.00;99.90;;;;;;12500211;28;20128;-84
2021/08/01 15:48:20;;;;;;;1.65;0.80;;;22.10;99.90;;;;;;12512487;28;20075;-83
2021/08/01 15:54:36;;;;;;;0.73;0.50;;;22.20;99.90;;;;;;12513450;28;20049;-84
2021/08/01 16:00:41;;;;;;;1.10;0.50;;;22.20;99.90;;;;;;12506868;28;20080;-83
2021/08/01 16:06:44;;;;;;;0.68;0.40;;;22.80;99.90;;;;;;12492463;28;20057;-84
2021/08/01 16:12:59;;;;;;;0.50;0.40;;;22.70;99.90;;;;;;12541656;28;20084;-84
2021/08/01 16:19:16;;;;;;;1.27;0.80;;;22.40;99.90;;;;;;12534413;28;20407;-85
2021/08/01 16:25:19;;;;;;;1.73;1.00;;;21.60;99.90;;;;;;12536969;28;20178;-83
2021/08/01 16:31:22;;;;;;;1.50;1.00;;;21.40;99.90;;;;;;12528432;28;20186;-85
2021/08/01 16:37:24;;;;;;;2.73;1.13;;;21.20;99.90;;;;;;12542684;28;20050;-82
2021/08/01 16:43:40;;;;;;;2.28;1.35;;;20.60;99.90;;;;;;12546149;28;20049;-84
2021/08/01 16:49:41;;;;;;;3.90;2.00;;;20.20;99.90;;;;;;12538366;28;21126;-83
2021/08/01 16:55:56;;;;;;;3.95;1.55;;;19.80;99.90;;;;;;12589940;28;20495;-84
2021/08/01 17:02:07;;;;;;;3.25;1.80;;;19.80;99.90;;;;;;12527461;28;20044;-84
2021/08/01 17:08:12;;;;;;;3.40;2.25;;;19.60;99.90;;;;;;12520380;28;20070;-83
2021/08/01 17:14:15;;;;;;;4.32;2.50;;;19.70;99.90;;;;;;12470921;28;20132;-84
2021/08/01 17:20:17;;;;;;;6.68;2.40;;;19.60;99.90;;;;;;12491986;28;20048;-83
2021/08/01 17:26:20;;;;;;;5.70;2.58;;;19.60;99.90;;;;;;12465195;28;20554;-84
2021/08/01 17:32:29;;;;;;;3.42;2.30;;;19.60;99.90;;;;;;12469700;28;20497;-84
2021/08/01 17:38:33;;;;;;;3.78;2.38;;;19.60;99.90;;;;;;12470151;28;20155;-84
2021/08/01 17:44:45;;;;;;;5.72;2.58;;;19.60;99.90;;;;;;12462413;28;20041;-84
2021/08/01 17:50:48;;;;;;;4.32;2.67;;;19.40;99.90;;;;;;12464070;28;20063;-84
2021/08/01 17:56:52;;;;;;;5.03;2.20;;;19.30;99.90;;;;;;12481512;28;20470;-84
2021/08/01 18:02:56;;;;;;;3.55;2.47;;;19.30;99.90;;;;;;12487078;28;20081;-84
2021/08/01 18:09:06;;;;;;;3.80;2.60;;;19.30;99.90;;;;;;12514582;28;20143;-84
2021/08/01 18:15:13;;;;;;;3.65;2.10;;;19.20;99.90;;;;;;12542288;28;20040;-84
2021/08/01 18:21:17;;;;;;;5.55;2.45;;;19.10;99.90;;;;;;12543700;28;20128;-84
2021/08/01 18:27:19;;;;;;;3.78;2.30;;;19.10;99.90;;;;;;12540526;28;20083;-83
2021/08/01 18:33:23;;;;;;;3.45;2.30;;;19.00;99.90;;;;;;12540819;28;20106;-84
2021/08/01 18:39:25;;;;;;;3.97;2.20;;;19.00;99.90;;;;;;12542274;28;20056;-84
2021/08/01 18:45:27;;;;;;;3.80;2.25;;;18.90;99.90;;;;;;12539923;28;20143;-84
2021/08/01 18:51:32;;;;;;;4.65;2.40;;;19.00;99.90;;;;;;12528316;28;20049;-85
2021/08/01 18:57:34;;;;;;;5.85;2.85;;;18.30;99.90;;;;;;12537224;28;20743;-86
2021/08/01 19:03:37;;;;;;;5.45;2.50;;;17.60;99.90;;;;;;12527006;28;20507;-87
2021/08/01 19:09:43;;;;;;;8.32;3.55;;;17.20;99.90;;;;;;12533085;28;20056;-87
2021/08/01 19:16:07;;;;;;;4.65;2.67;;;16.80;99.90;;;;;;12526618;28;20452;-87
2021/08/01 19:22:18;;;;;;;4.68;3.00;;;16.70;99.90;;;;;;12528405;28;20101;-87
2021/08/01 19:28:23;;;;;;;3.70;2.25;;;16.70;99.90;;;;;;12529646;28;20460;-87
2021/08/01 19:34:29;;;;;;;6.78;3.15;;;16.60;99.90;;;;;;12527153;28;20173;-87
2021/08/01 19:40:32;;;;;;;4.85;2.95;;;16.60;99.90;;;;;;12526204;28;20068;-87
2021/08/01 19:46:38;;;;;;;2.85;1.88;;;16.70;99.90;;;;;;12530203;28;20152;-86
2021/08/01 19:52:42;;;;;;;2.47;1.65;;;16.60;99.90;;;;;;12522487;28;20044;-86
2021/08/01 19:58:43;;;;;;;5.40;1.60;;;16.50;99.90;;;;;;12533273;28;20049;-86
2021/08/01 20:04:45;;;;;;;3.20;2.00;;;16.40;99.90;;;;;;12531018;28;20072;-86
2021/08/01 20:10:47;;;;;;;3.75;1.85;;;16.40;99.90;;;;;;12523936;28;20075;-86
2021/08/01 20:16:49;;;;;;;4.43;2.60;;;16.40;99.90;;;;;;12525582;28;20050;-86
2021/08/01 20:22:51;;;;;;;3.95;2.03;;;15.90;99.90;;;;;;12530397;28;20062;-86
2021/08/01 20:28:53;;;;;;;6.55;2.13;;;15.90;99.90;;;;;;12523621;28;20136;-86
2021/08/01 20:34:55;;;;;;;3.78;1.98;;;15.90;99.90;;;;;;12563360;28;20048;-86
2021/08/01 20:40:57;;;;;;;4.82;1.98;;;16.10;99.90;;;;;;12524421;28;20116;-85
2021/08/01 20:46:59;;;;;;;3.75;2.25;;;16.30;99.90;;;;;;12524463;28;20135;-85
2021/08/01 20:53:01;;;;;;;3.97;2.15;;;16.30;99.90;;;;;;12522677;28;20065;-85
2021/08/01 20:59:03;;;;;;;5.53;2.42;;;16.20;99.90;;;;;;12518189;28;20041;-85
2021/08/01 21:05:05;;;;;;;3.30;2.17;;;16.10;99.90;;;;;;12518731;28;20074;-85
2021/08/01 21:11:07;;;;;;;4.95;2.67;;;16.20;99.90;;;;;;12523144;28;20080;-85
2021/08/01 21:17:10;;;;;;;5.72;2.38;;;16.20;99.90;;;;;;12528429;28;20040;-85
2021/08/01 21:23:12;;;;;;;4.88;2.53;;;16.20;99.90;;;;;;12529352;28;20037;-85
2021/08/01 21:29:14;;;;;;;3.78;2.70;;;16.20;99.90;;;;;;12518272;28;20118;-85
2021/08/01 21:35:15;;;;;;;5.63;3.33;;;16.10;99.90;;;;;;12518495;28;20048;-85
2021/08/01 21:41:18;;;;;;;5.35;3.45;;;16.00;99.90;;;;;;12521482;28;20041;-85
2021/08/01 21:47:20;;;;;;;5.80;4.13;;;16.10;99.90;;;;;;12514367;28;20072;-85
2021/08/01 21:53:22;;;;;;;5.00;3.90;;;16.00;99.90;;;;;;12513082;28;20512;-86
2021/08/01 21:59:24;;;;;;;6.50;4.35;;;15.90;99.90;;;;;;12519052;28;20654;-85
2021/08/01 22:05:26;;;;;;;6.60;4.55;;;15.90;99.90;;;;;;12519257;28;20078;-85
2021/08/01 22:11:28;;;;;;;5.93;4.28;;;15.90;99.90;;;;;;12517848;28;20069;-85
2021/08/01 22:17:32;;;;;;;4.43;3.60;;;16.00;99.90;;;;;;12520372;28;20072;-85
2021/08/01 22:23:35;;;;;;;6.73;3.43;;;15.90;99.90;;;;;;12524401;28;20045;-84
2021/08/01 22:29:39;;;;;;;4.10;3.30;;;15.80;99.90;;;;;;12526548;28;20087;-85
2021/08/01 22:35:43;;;;;;;6.25;3.45;;;15.90;99.90;;;;;;12519100;28;20133;-84
2021/08/01 22:41:48;;;;;;;6.37;3.80;;;16.00;99.90;;;;;;12529798;28;20040;-85
2021/08/01 22:47:51;;;;;;;6.47;4.70;;;15.90;99.90;;;;;;12520815;28;20074;-84
2021/08/01 22:53:53;;;;;;;8.57;5.82;;;15.70;99.90;;;;;;12543582;28;20048;-85
2021/08/01 22:59:55;;;;;;;11.38;6.60;;;15.70;99.90;;;;;;12534543;28;20521;-84
2021/08/01 23:06:19;;;;;;;10.48;6.90;;;15.70;99.90;;;;;;12527374;28;20105;-85
2021/08/01 23:12:30;;;;;;;10.80;6.63;;;15.80;99.90;;;;;;12535403;28;20048;-85
2021/08/01 23:18:37;;;;;;;11.30;6.85;;;15.80;99.90;;;;;;12537274;28;20124;-84
2021/08/01 23:24:49;;;;;;;9.90;7.00;;;15.80;99.90;;;;;;12532689;28;20580;-85
2021/08/01 23:30:51;;;;;;;10.30;6.95;;;15.60;99.90;;;;;;12529419;28;20132;-84
2021/08/01 23:36:53;;;;;;;15.85;6.72;;;15.60;99.90;;;;;;12533315;28;20041;-85
2021/08/01 23:42:59;;;;;;;12.07;6.72;;;15.60;99.90;;;;;;12528527;28;20094;-85
2021/08/01 23:49:02;;;;;;;10.38;6.50;;;15.60;99.90;;;;;;12535156;28;20080;-84
2021/08/01 23:55:14;;;;;;;9.95;6.35;;;15.60;99.90;;;;;;12515528;28;20045;-85
